createdAt,value
2023-01-24T00:01:16.767Z,37.80
2023-01-24T00:03:44.231Z,36.47
2023-01-24T00:06:18.094Z,37.45
2023-01-24T00:08:45.221Z,36.03
2023-01-24T00:11:14.405Z,36.88
2023-01-24T00:13:42.694Z,37.40
2023-01-24T00:16:13.306Z,36.78
2023-01-24T00:18:42.434Z,36.03
2023-01-24T00:21:19.257Z,34.03
2023-01-24T00:23:48.936Z,33.75
2023-01-24T00:26:17.675Z,37.08
2023-01-24T00:28:45.200Z,38.63
2023-01-24T00:31:13.444Z,39.15
2023-01-24T00:33:41.062Z,36.60
2023-01-24T00:36:09.160Z,34.70
2023-01-24T00:38:36.717Z,36.83
2023-01-24T00:41:04.331Z,37.55
2023-01-24T00:43:32.651Z,37.88
2023-01-24T00:46:00.454Z,36.80
2023-01-24T00:48:28.272Z,35.95
2023-01-24T00:50:55.488Z,36.58
2023-01-24T00:53:23.197Z,35.03
2023-01-24T00:55:51.808Z,34.70
2023-01-24T00:58:19.922Z,34.17
2023-01-24T01:00:47.700Z,35.85
2023-01-24T01:03:17.714Z,35.72
2023-01-24T01:05:45.755Z,35.88
2023-01-24T01:08:13.712Z,38.90
2023-01-24T01:10:42.027Z,36.63
2023-01-24T01:13:13.646Z,37.92
2023-01-24T01:15:41.915Z,37.42
2023-01-24T01:18:09.328Z,37.85
2023-01-24T01:20:37.263Z,37.05
2023-01-24T01:23:05.838Z,34.88
2023-01-24T01:25:33.343Z,37.17
2023-01-24T01:28:00.617Z,37.88
2023-01-24T01:30:29.113Z,38.92
2023-01-24T01:32:58.587Z,45.28
2023-01-24T01:35:26.109Z,44.83
2023-01-24T01:37:55.551Z,40.28
2023-01-24T01:40:23.216Z,36.45
2023-01-24T01:42:56.339Z,36.72
2023-01-24T01:45:38.509Z,36.83
2023-01-24T01:48:36.792Z,36.97
2023-01-24T01:51:06.019Z,36.85
2023-01-24T01:53:41.112Z,36.58
2023-01-24T01:56:25.271Z,37.20
2023-01-24T01:59:03.506Z,36.33
2023-01-24T02:01:31.054Z,35.60
2023-01-24T02:04:08.992Z,35.40
2023-01-24T02:06:51.320Z,36.47
2023-01-24T02:09:25.257Z,37.03
2023-01-24T02:11:55.861Z,33.90
2023-01-24T02:14:44.232Z,32.60
2023-01-24T02:17:11.879Z,32.22
2023-01-24T02:20:01.146Z,32.13
2023-01-24T02:22:59.454Z,31.35
2023-01-24T02:25:54.904Z,31.83
2023-01-24T02:28:22.458Z,31.48
2023-01-24T02:30:49.928Z,30.25
2023-01-24T02:33:20.934Z,31.77
2023-01-24T02:35:48.602Z,32.25
2023-01-24T02:38:29.778Z,32.88
2023-01-24T02:41:07.725Z,32.53
2023-01-24T02:43:45.644Z,31.55
2023-01-24T02:46:13.156Z,32.25
2023-01-24T02:48:41.604Z,32.28
2023-01-24T02:51:27.581Z,34.45
2023-01-24T02:53:54.953Z,34.67
2023-01-24T02:56:41.239Z,33.22
2023-01-24T02:59:08.385Z,33.05
2023-01-24T03:01:37.834Z,32.53
2023-01-24T03:04:05.504Z,33.05
2023-01-24T03:06:32.734Z,32.97
2023-01-24T03:09:00.223Z,32.08
2023-01-24T03:11:27.625Z,34.15
2023-01-24T03:14:13.786Z,33.15
2023-01-24T03:16:59.465Z,33.63
2023-01-24T03:19:45.113Z,33.10
2023-01-24T03:22:30.725Z,35.60
2023-01-24T03:25:16.274Z,35.67
2023-01-24T03:28:01.955Z,34.85
2023-01-24T03:30:48.179Z,34.42
2023-01-24T03:33:39.962Z,33.80
2023-01-24T03:36:09.314Z,35.30
2023-01-24T03:38:55.494Z,34.78
2023-01-24T03:41:24.847Z,35.15
2023-01-24T03:43:54.939Z,35.25
2023-01-24T03:46:22.250Z,37.45
2023-01-24T03:48:51.736Z,37.00
2023-01-24T03:51:45.584Z,41.80
2023-01-24T03:54:12.788Z,40.63
2023-01-24T03:56:41.267Z,40.38
2023-01-24T03:59:08.808Z,39.50
2023-01-24T04:01:36.230Z,41.13
2023-01-24T04:04:03.376Z,42.95
2023-01-24T04:06:30.635Z,40.33
2023-01-24T04:08:57.971Z,36.78
2023-01-24T04:11:25.456Z,36.88
2023-01-24T04:13:52.937Z,36.45
2023-01-24T04:16:20.498Z,41.15
2023-01-24T04:18:54.000Z,55.25
2023-01-24T04:23:48.396Z,92.82
2023-01-24T04:26:15.922Z,91.38
2023-01-24T04:28:44.357Z,92.47
2023-01-24T04:31:11.853Z,101.40
2023-01-24T04:33:39.206Z,117.60
2023-01-24T04:36:07.189Z,110.43
2023-01-24T04:38:34.638Z,58.10
2023-01-24T04:41:02.908Z,56.50
2023-01-24T04:43:30.345Z,73.13
2023-01-24T04:45:59.933Z,102.13
2023-01-24T04:48:28.119Z,115.32
2023-01-24T04:51:02.009Z,135.88
2023-01-24T04:53:31.003Z,145.40
2023-01-24T04:56:03.137Z,124.55
2023-01-24T04:58:30.363Z,127.47
2023-01-24T05:00:59.469Z,149.40
2023-01-24T05:03:27.260Z,121.05
2023-01-24T05:05:55.290Z,108.47
2023-01-24T05:08:24.721Z,59.22
2023-01-24T05:10:53.515Z,60.38
2023-01-24T05:13:20.748Z,76.40
2023-01-24T05:15:51.348Z,88.25
2023-01-24T05:18:20.743Z,108.95
2023-01-24T05:20:48.251Z,113.63
2023-01-24T05:23:17.311Z,136.77
2023-01-24T05:25:46.497Z,118.40
2023-01-24T05:28:14.032Z,90.45
2023-01-24T05:30:41.517Z,88.07
2023-01-24T05:33:09.098Z,90.35
2023-01-24T05:35:36.366Z,74.28
2023-01-24T05:38:03.451Z,63.38
2023-01-24T05:40:30.767Z,48.38
2023-01-24T05:42:58.247Z,48.70
2023-01-24T05:45:25.875Z,65.78
2023-01-24T05:47:59.315Z,68.95
2023-01-24T05:52:53.685Z,61.17
2023-01-24T05:55:23.576Z,53.70
2023-01-24T05:57:52.224Z,78.50
2023-01-24T06:00:20.027Z,74.22
2023-01-24T06:02:47.345Z,65.88
2023-01-24T06:05:14.782Z,52.03
2023-01-24T06:07:48.218Z,46.78
2023-01-24T06:12:48.706Z,46.53
2023-01-24T06:15:23.716Z,45.22
2023-01-24T06:17:51.307Z,47.45
2023-01-24T06:20:24.523Z,46.72
2023-01-24T06:22:54.651Z,47.80
2023-01-24T06:25:25.362Z,52.92
2023-01-24T06:27:53.577Z,49.05
2023-01-24T06:30:21.499Z,47.38
2023-01-24T06:33:04.042Z,49.72
2023-01-24T06:36:08.635Z,45.83
2023-01-24T06:38:36.207Z,45.45
2023-01-24T06:41:03.703Z,48.15
2023-01-24T06:43:37.290Z,46.55
2023-01-24T06:46:05.528Z,46.83
2023-01-24T06:48:32.930Z,47.00
2023-01-24T06:51:00.880Z,48.88
2023-01-24T06:53:28.432Z,46.78
2023-01-24T06:55:55.788Z,49.90
2023-01-24T06:58:23.766Z,48.70
2023-01-24T07:00:53.615Z,51.20
2023-01-24T07:03:21.694Z,48.30
2023-01-24T07:05:50.048Z,52.08
2023-01-24T07:08:21.740Z,53.55
2023-01-24T07:10:49.421Z,57.08
2023-01-24T07:13:18.994Z,58.30
2023-01-24T07:15:46.401Z,52.22
2023-01-24T07:18:15.009Z,56.10
2023-01-24T07:20:42.537Z,49.17
2023-01-24T07:23:23.032Z,46.35
2023-01-24T07:25:54.286Z,49.13
2023-01-24T07:28:22.656Z,52.78
2023-01-24T07:30:50.526Z,56.13
2023-01-24T07:33:18.946Z,58.40
2023-01-24T07:35:48.627Z,57.22
2023-01-24T07:38:16.944Z,54.67
2023-01-24T07:40:44.457Z,53.58
2023-01-24T07:43:19.915Z,49.88
2023-01-24T07:45:47.711Z,58.22
2023-01-24T07:48:22.119Z,64.25
2023-01-24T07:50:49.558Z,56.85
2023-01-24T07:53:17.112Z,52.42
2023-01-24T07:56:00.554Z,54.38
2023-01-24T07:58:29.225Z,56.05
2023-01-24T08:00:56.511Z,60.28
2023-01-24T08:03:27.549Z,58.80
2023-01-24T08:05:55.587Z,59.78
2023-01-24T08:08:22.788Z,57.85
2023-01-24T08:10:49.827Z,53.25
2023-01-24T08:13:17.129Z,50.38
2023-01-24T08:15:44.646Z,45.88
2023-01-24T08:18:12.325Z,45.42
2023-01-24T08:20:39.547Z,48.53
2023-01-24T08:23:06.632Z,48.47
2023-01-24T08:25:35.305Z,46.30
2023-01-24T08:28:03.572Z,42.30
2023-01-24T08:30:30.896Z,41.20
2023-01-24T08:33:05.596Z,42.58
2023-01-24T08:35:34.443Z,50.72
2023-01-24T08:38:01.613Z,52.97
2023-01-24T08:40:33.120Z,50.97
2023-01-24T08:43:05.421Z,45.78
2023-01-24T08:45:32.800Z,43.15
2023-01-24T08:48:00.312Z,43.90
2023-01-24T08:50:27.985Z,43.45
2023-01-24T08:52:59.921Z,41.67
2023-01-24T08:55:30.630Z,39.55
2023-01-24T08:58:03.087Z,40.97
2023-01-24T09:00:31.445Z,41.17
2023-01-24T09:03:02.116Z,40.75
2023-01-24T09:05:31.017Z,40.83
2023-01-24T09:07:58.536Z,39.53
2023-01-24T09:10:25.963Z,40.88
2023-01-24T09:12:53.014Z,39.22
2023-01-24T09:15:20.125Z,42.35
2023-01-24T09:17:48.469Z,43.33
2023-01-24T09:20:16.229Z,41.92
2023-01-24T09:22:43.600Z,40.58
2023-01-24T09:25:11.032Z,41.42
2023-01-24T09:27:38.374Z,40.72
2023-01-24T09:30:08.329Z,39.58
2023-01-24T09:32:36.759Z,41.58
2023-01-24T09:35:04.868Z,39.72
2023-01-24T09:37:32.177Z,40.95
2023-01-24T09:40:00.968Z,42.75
2023-01-24T09:42:42.350Z,43.33
2023-01-24T09:45:19.452Z,41.25
2023-01-24T09:48:02.671Z,40.75
2023-01-24T09:50:50.677Z,40.90
2023-01-24T09:53:21.876Z,40.55
2023-01-24T09:55:49.222Z,38.20
2023-01-24T09:58:32.831Z,38.03
2023-01-24T10:01:10.816Z,42.13
2023-01-24T10:03:43.488Z,41.88
2023-01-24T10:06:28.007Z,40.67
2023-01-24T10:09:13.859Z,42.63
2023-01-24T10:12:02.973Z,42.47
2023-01-24T10:14:46.078Z,39.65
2023-01-24T10:17:37.925Z,37.28
2023-01-24T10:20:29.158Z,34.33
2023-01-24T10:23:09.522Z,34.92
2023-01-24T10:25:52.089Z,34.42
2023-01-24T10:28:35.031Z,33.05
2023-01-24T10:31:02.426Z,31.98
2023-01-24T10:33:34.492Z,32.60
2023-01-24T10:36:36.395Z,30.15
2023-01-24T10:39:03.772Z,30.58
2023-01-24T10:41:33.684Z,28.65
2023-01-24T10:44:12.307Z,28.55
2023-01-24T10:47:11.405Z,39.53
2023-01-24T10:49:42.303Z,27.85
2023-01-24T10:52:12.510Z,26.80
2023-01-24T10:54:56.592Z,32.00
2023-01-24T10:57:38.416Z,31.98
2023-01-24T11:00:34.459Z,39.78
2023-01-24T11:03:04.943Z,40.88
2023-01-24T11:05:41.758Z,31.60
2023-01-24T11:08:19.781Z,28.95
2023-01-24T11:10:47.859Z,29.13
2023-01-24T11:13:30.065Z,30.63
2023-01-24T11:16:16.307Z,29.17
2023-01-24T11:19:06.786Z,30.80
2023-01-24T11:21:41.533Z,31.85
2023-01-24T11:24:14.392Z,34.92
2023-01-24T11:27:21.034Z,35.05
2023-01-24T11:30:20.937Z,31.58
2023-01-24T11:33:25.231Z,37.03
2023-01-24T11:36:08.417Z,30.00
2023-01-24T11:38:43.801Z,31.92
2023-01-24T11:41:25.826Z,35.80
2023-01-24T11:44:26.996Z,37.92
2023-01-24T11:47:12.347Z,42.35
2023-01-24T11:49:59.669Z,40.78
2023-01-24T11:52:48.344Z,41.55
2023-01-24T11:55:37.501Z,43.80
2023-01-24T11:58:12.886Z,45.25
2023-01-24T12:00:52.720Z,39.75
2023-01-24T12:03:55.076Z,35.88
2023-01-24T12:07:23.182Z,37.13
2023-01-24T12:10:03.085Z,36.15
2023-01-24T12:12:55.515Z,35.50
2023-01-24T12:15:39.988Z,35.45
2023-01-24T12:18:25.349Z,35.30
2023-01-24T12:20:59.224Z,34.85
2023-01-24T12:23:56.012Z,36.05
2023-01-24T12:26:29.378Z,35.70
2023-01-24T12:29:07.995Z,35.38
2023-01-24T12:31:53.697Z,35.30
2023-01-24T12:34:29.981Z,36.97
2023-01-24T12:37:10.282Z,39.33
2023-01-24T12:40:00.813Z,39.88
2023-01-24T12:42:45.220Z,43.65
2023-01-24T12:45:18.247Z,41.55
2023-01-24T12:48:01.596Z,41.35
2023-01-24T12:50:50.620Z,49.00
2023-01-24T12:53:33.197Z,47.03
2023-01-24T12:56:22.239Z,46.35
2023-01-24T12:58:53.164Z,47.47
2023-01-24T13:01:32.921Z,46.65
2023-01-24T13:04:24.592Z,47.08
2023-01-24T13:07:03.861Z,49.67
2023-01-24T13:09:49.504Z,54.70
2023-01-24T13:12:23.947Z,49.60
2023-01-24T13:14:58.094Z,45.47
2023-01-24T13:18:03.344Z,47.53
2023-01-24T13:20:58.451Z,57.38
2023-01-24T13:23:50.225Z,78.10
2023-01-24T13:26:54.585Z,98.22
2023-01-24T13:32:16.759Z,70.25
2023-01-24T13:34:48.718Z,57.72
2023-01-24T13:37:24.578Z,57.78
2023-01-24T13:40:15.043Z,56.88
2023-01-24T13:42:43.389Z,52.63
2023-01-24T13:45:32.359Z,48.75
2023-01-24T13:48:02.023Z,47.88
2023-01-24T13:50:30.729Z,45.55
2023-01-24T13:53:02.857Z,47.30
2023-01-24T13:55:31.286Z,47.50
2023-01-24T13:58:21.209Z,54.15
2023-01-24T14:00:53.544Z,53.17
2023-01-24T14:03:31.930Z,50.85
2023-01-24T14:06:04.017Z,49.15
2023-01-24T14:08:31.042Z,51.38
2023-01-24T14:11:04.294Z,54.05
2023-01-24T14:14:03.635Z,53.00
2023-01-24T14:16:38.717Z,50.55
2023-01-24T14:19:47.319Z,47.88
2023-01-24T14:22:22.102Z,45.67
2023-01-24T14:25:19.678Z,50.35
2023-01-24T14:27:58.837Z,55.20
2023-01-24T14:30:39.868Z,59.65
2023-01-24T14:33:33.884Z,70.15
2023-01-24T14:36:34.806Z,56.90
2023-01-24T14:39:27.357Z,52.63
2023-01-24T14:42:06.069Z,55.83
2023-01-24T14:44:38.600Z,60.42
2023-01-24T14:47:22.103Z,59.30
2023-01-24T14:50:00.116Z,51.05
2023-01-24T14:52:34.249Z,49.72
2023-01-24T14:55:28.826Z,44.70
2023-01-24T14:57:56.267Z,36.97
2023-01-24T15:00:25.021Z,37.15
2023-01-24T15:02:53.818Z,34.25
2023-01-24T15:05:28.798Z,37.00
2023-01-24T15:08:00.921Z,33.90
2023-01-24T15:10:45.439Z,34.15
2023-01-24T15:13:44.912Z,32.08
2023-01-24T15:16:21.266Z,31.27
2023-01-24T15:18:53.022Z,30.55
2023-01-24T15:21:27.708Z,35.33
2023-01-24T15:23:58.786Z,36.05
2023-01-24T15:26:38.823Z,40.00
2023-01-24T15:29:43.574Z,44.70
2023-01-24T15:32:30.879Z,47.40
2023-01-24T15:35:31.523Z,48.33
2023-01-24T15:38:18.742Z,52.67
2023-01-24T15:40:59.773Z,55.65
2023-01-24T15:43:48.380Z,59.67
2023-01-24T15:46:41.698Z,56.78
2023-01-24T15:49:34.343Z,50.87
2023-01-24T15:52:23.131Z,49.75
2023-01-24T15:55:01.777Z,48.00
2023-01-24T15:57:39.302Z,46.55
2023-01-24T16:00:11.831Z,58.20
2023-01-24T16:02:39.341Z,63.40
2023-01-24T16:05:18.665Z,60.05
2023-01-24T16:07:46.566Z,62.67
2023-01-24T16:10:14.882Z,59.33
2023-01-24T16:12:42.373Z,56.47
2023-01-24T16:15:21.684Z,53.78
2023-01-24T16:17:48.956Z,54.58
2023-01-24T16:20:22.011Z,63.88
2023-01-24T16:22:50.100Z,61.00
2023-01-24T16:25:20.372Z,76.63
2023-01-24T16:27:51.118Z,68.88
2023-01-24T16:30:22.774Z,53.47
2023-01-24T16:32:51.335Z,43.92
2023-01-24T16:35:19.586Z,41.63
2023-01-24T16:37:46.996Z,43.60
2023-01-24T16:40:17.731Z,43.55
2023-01-24T16:42:47.740Z,43.30
2023-01-24T16:45:20.305Z,44.40
2023-01-24T16:47:48.776Z,48.93
2023-01-24T16:50:17.584Z,50.50
2023-01-24T16:52:47.574Z,51.03
2023-01-24T16:55:16.058Z,55.80
2023-01-24T16:57:43.751Z,58.75
2023-01-24T17:00:13.960Z,57.05
2023-01-24T17:02:42.435Z,60.58
2023-01-24T17:05:11.256Z,51.97
2023-01-24T17:07:39.277Z,46.42
2023-01-24T17:10:07.770Z,43.88
2023-01-24T17:12:45.336Z,38.28
2023-01-24T17:15:13.440Z,36.92
2023-01-24T17:17:41.129Z,35.65
2023-01-24T17:20:12.114Z,41.03
2023-01-24T17:22:41.054Z,43.28
2023-01-24T17:25:10.066Z,39.10
2023-01-24T17:27:44.824Z,40.75
2023-01-24T17:30:12.825Z,37.67
2023-01-24T17:32:44.055Z,35.25
2023-01-24T17:35:13.732Z,33.95
2023-01-24T17:37:45.482Z,38.97
2023-01-24T17:40:13.432Z,40.67
2023-01-24T17:42:41.405Z,43.22
2023-01-24T17:45:09.384Z,41.20
2023-01-24T17:47:37.677Z,42.13
2023-01-24T17:50:05.981Z,44.72
2023-01-24T17:52:33.694Z,47.70
2023-01-24T17:55:01.015Z,44.90
2023-01-24T17:57:29.531Z,43.53
2023-01-24T17:59:58.357Z,41.85
2023-01-24T18:02:25.870Z,43.97
2023-01-24T18:04:55.429Z,65.72
2023-01-24T18:07:23.370Z,67.00
2023-01-24T18:09:51.367Z,66.95
2023-01-24T18:12:19.160Z,73.97
2023-01-24T18:14:50.774Z,74.53
2023-01-24T18:17:20.640Z,62.03
2023-01-24T18:19:48.059Z,63.13
2023-01-24T18:22:15.941Z,60.40
2023-01-24T18:24:43.827Z,56.97
2023-01-24T18:27:12.651Z,63.33
2023-01-24T18:29:40.749Z,63.53
2023-01-24T18:32:08.823Z,61.88
2023-01-24T18:34:36.690Z,55.55
2023-01-24T18:37:10.799Z,57.75
2023-01-24T18:39:39.663Z,57.08
2023-01-24T18:42:08.567Z,71.68
2023-01-24T18:44:37.348Z,75.72
2023-01-24T18:47:06.008Z,81.28
2023-01-24T18:49:33.910Z,69.15
2023-01-24T18:52:02.435Z,55.70
2023-01-24T18:54:33.026Z,56.30
2023-01-24T18:57:02.377Z,64.43
2023-01-24T18:59:30.348Z,63.47
2023-01-24T19:01:59.687Z,65.30
2023-01-24T19:04:28.628Z,74.85
2023-01-24T19:07:04.601Z,59.92
2023-01-24T19:09:34.522Z,57.03
2023-01-24T19:12:03.934Z,73.38
2023-01-24T19:14:32.947Z,85.10
2023-01-24T19:17:01.887Z,82.40
2023-01-24T19:19:32.108Z,74.80
2023-01-24T19:22:00.484Z,69.50
2023-01-24T19:24:35.785Z,65.80
2023-01-24T19:27:04.697Z,58.70
2023-01-24T19:29:33.166Z,141.55
2023-01-24T19:32:02.330Z,115.32
2023-01-24T19:34:30.641Z,98.82
2023-01-24T19:36:59.157Z,209.43
2023-01-24T19:39:27.779Z,256.40
2023-01-24T19:41:55.656Z,148.43
2023-01-24T19:44:26.806Z,78.30
2023-01-24T19:46:55.904Z,79.32
2023-01-24T19:49:24.502Z,95.45
2023-01-24T19:51:52.089Z,90.15
2023-01-24T19:54:21.693Z,87.25
2023-01-24T19:56:55.416Z,106.75
2023-01-24T19:59:25.199Z,129.82
2023-01-24T20:01:55.153Z,74.30
2023-01-24T20:04:25.403Z,72.63
2023-01-24T20:06:56.799Z,84.82
2023-01-24T20:09:25.427Z,94.03
2023-01-24T20:11:54.583Z,114.75
2023-01-24T20:14:23.073Z,81.68
2023-01-24T20:16:52.286Z,79.43
2023-01-24T20:19:29.669Z,74.38
2023-01-24T20:22:01.727Z,80.82
2023-01-24T20:24:30.816Z,76.65
2023-01-24T20:26:59.091Z,85.70
2023-01-24T20:29:30.624Z,87.38
2023-01-24T20:32:12.035Z,85.95
2023-01-24T20:34:46.138Z,90.25
2023-01-24T20:37:15.739Z,87.30
2023-01-24T20:39:44.689Z,84.82
2023-01-24T20:42:13.475Z,91.15
2023-01-24T20:44:43.180Z,80.80
2023-01-24T20:47:11.365Z,76.72
2023-01-24T20:49:39.533Z,64.60
2023-01-24T20:52:14.583Z,59.50
2023-01-24T20:54:43.337Z,58.53
2023-01-24T20:57:11.559Z,52.08
2023-01-24T20:59:40.536Z,46.08
2023-01-24T21:02:10.909Z,44.03
2023-01-24T21:04:38.655Z,45.70
2023-01-24T21:07:06.355Z,48.35
2023-01-24T21:09:34.586Z,50.67
2023-01-24T21:12:08.373Z,49.30
2023-01-24T21:14:36.449Z,58.00
2023-01-24T21:17:04.097Z,43.25
2023-01-24T21:19:31.913Z,146.70
2023-01-24T21:21:59.662Z,77.90
2023-01-24T21:24:33.221Z,52.30
2023-01-24T21:27:02.800Z,45.47
2023-01-24T21:29:31.035Z,44.72
2023-01-24T21:31:58.614Z,44.58
2023-01-24T21:34:26.371Z,42.60
2023-01-24T21:36:55.339Z,39.40
2023-01-24T21:39:23.259Z,39.53
2023-01-24T21:41:57.277Z,40.08
2023-01-24T21:44:27.224Z,40.95
2023-01-24T21:46:55.488Z,37.97
2023-01-24T21:49:24.069Z,37.38
2023-01-24T21:52:02.082Z,39.15
2023-01-24T21:54:34.376Z,39.00
2023-01-24T21:57:35.111Z,37.72
2023-01-24T22:00:07.131Z,39.83
2023-01-24T22:02:34.493Z,37.65
2023-01-24T22:05:03.032Z,41.90
2023-01-24T22:07:31.971Z,43.65
2023-01-24T22:10:00.968Z,42.60
2023-01-24T22:12:30.595Z,44.10
2023-01-24T22:14:59.296Z,44.65
2023-01-24T22:17:26.999Z,48.22
2023-01-24T22:19:56.849Z,48.60
2023-01-24T22:22:45.302Z,48.22
2023-01-24T22:25:19.953Z,52.25
2023-01-24T22:27:48.305Z,48.90
2023-01-24T22:30:23.759Z,50.28
2023-01-24T22:32:52.388Z,51.90
2023-01-24T22:35:22.696Z,51.58
2023-01-24T22:37:54.971Z,52.88
2023-01-24T22:40:23.854Z,56.38
2023-01-24T22:42:51.329Z,58.38
2023-01-24T22:45:20.912Z,55.67
2023-01-24T22:47:48.118Z,57.13
2023-01-24T22:50:17.000Z,58.17
2023-01-24T22:52:44.624Z,61.28
2023-01-24T22:55:14.605Z,63.60
2023-01-24T22:57:42.991Z,52.15
2023-01-24T23:00:13.347Z,50.08
2023-01-24T23:02:40.443Z,51.35
2023-01-24T23:05:09.797Z,49.95
2023-01-24T23:07:37.457Z,59.70
2023-01-24T23:10:05.542Z,61.65
2023-01-24T23:12:51.251Z,63.88
2023-01-24T23:15:37.542Z,69.18
2023-01-24T23:18:12.682Z,73.00
2023-01-24T23:20:59.001Z,70.05
2023-01-24T23:23:27.226Z,65.95
2023-01-24T23:25:54.689Z,68.75
2023-01-24T23:28:22.070Z,61.67
2023-01-24T23:31:04.390Z,53.85
2023-01-24T23:33:40.085Z,50.15
2023-01-24T23:36:10.072Z,45.60
2023-01-24T23:38:37.437Z,51.30
2023-01-24T23:41:09.334Z,62.28
2023-01-24T23:43:36.657Z,64.13
2023-01-24T23:46:10.006Z,61.38
2023-01-24T23:51:05.884Z,56.25
2023-01-24T23:53:34.046Z,54.95
2023-01-24T23:56:01.692Z,51.97
2023-01-24T23:58:31.170Z,55.20
